Aeroporto :
LOGIN :

Iscrizione | Disclaimer

   EN    FR    IT 

 










Sommario :    VFR   VFR Marginale   IFR   IFR Intensivo   IFR Molto Intensivo
Visibilità : 
Base nubi : 
>= 8 km
>= 3000ft
5 / 8 km
1000 / 3000 ft
1500m / 5 km
500 / 1000 ft
800 / 1500m
200 / 500 ft
< 800m
< 200 ft
Simboli :   Temporali  Nebbia  Neve Forte  Precipitazioni Forti  Vento > 20 kt
SIGMETs :   Varie  Temporali  Ghiacco  Turbolenza  Onda orograficha  Ceneri Vulcaniche







- Altitudine del aeroporto : 171 ft
- Codice IATA : EGC
- Carte del aeroporto


LFBE - Bergerac

ULTIMO METAR :
  • 251200Z AUTO 01010KT CAVOK 15/04 Q1026 NOSIG

METARs OBSOLETI :
  • 251130Z AUTO 33010KT 300V010 CAVOK 15/05 Q1026 NOSIG
  • 251100Z AUTO 33009KT 300V020 9999 FEW043 15/06 Q1027 NOSIG
  • 251030Z AUTO 01010KT 330V040 CAVOK 14/05 Q1027 NOSIG
  • 251000Z AUTO 35010KT 320V030 9000 FEW037 13/05 Q1027 NOSIG
  • 250930Z AUTO 36009KT 330V030 9000 NSC 13/05 Q1027 NOSIG

TAF TAF LFBE
Valido dal 25 a 12 ore il 26 a 12 ore UTC


251100Z 2512/2612 36010KT CAVOK
TEMPO 2514/2518 36010G20KT
Nessun NOTAM noto per questo aeroporto.
1 SIGMET conosciuto per la FIR Bordeaux (LFBB) :
 
Turbolenza severa
LFBB SIGMET 2 VALID 251200/251600 LFPW
LFBB BORDEAUX FIR/UIR SEV TURB FCST WI N4330 E00245 - N4215 E00230 - N4245 E00145 - N4330 E00245 SFC/FL060 STNR NC=



MetMap, La meteo Aeronautica in un colpo d'occhio ! - Copyright ORBIFLY Dicembre 2007 - Disclaimer

ORBIFLY MET'MAP TEAM :

Programmazione e sviluppo : Alexandra Zaïnal
Concezione e sviluppo : Baudouin d'Aumeries
Co-Programmazione e sviluppo : Marc-Olivier Méhu
Supporto tecnico e logistico : Manuel Goepfert
Aiuto per la traduzione : Arnaldo La Scala

Contatto : metmap@orbifly.com




FONTI E CREDITI :

   NOAA